sensor_id;sensor_type;location;lat;lon;timestamp;temperature;humidity
11772;DHT22;12556;55.748;13.194;2022-10-30T00:02:08;12.50;99.90
11772;DHT22;12556;55.748;13.194;2022-10-30T00:04:35;12.60;99.90
11772;DHT22;12556;55.748;13.194;2022-10-30T00:07:02;12.60;99.90
11772;DHT22;12556;55.748;13.194;2022-10-30T00:09:29;12.60;99.90
11772;DHT22;12556;55.748;13.194;2022-10-30T00:11:57;12.60;99.90
11772;DHT22;12556;55.748;13.194;2022-10-30T00:14:24;12.60;99.90
11772;DHT22;12556;55.748;13.194;2022-10-30T00:16:51;12.60;99.90
11772;DHT22;12556;55.748;13.194;2022-10-30T00:19:18;12.60;99.90
11772;DHT22;12556;55.748;13.194;2022-10-30T00:21:45;12.60;99.90
11772;DHT22;12556;55.748;13.194;2022-10-30T00:24:12;12.60;99.90
11772;DHT22;12556;55.748;13.194;2022-10-30T00:26:39;12.70;99.90
11772;DHT22;12556;55.748;13.194;2022-10-30T00:29:07;12.70;99.90
11772;DHT22;12556;55.748;13.194;2022-10-30T00:31:34;12.70;99.90
11772;DHT22;12556;55.748;13.194;2022-10-30T00:34:01;12.70;99.90
11772;DHT22;12556;55.748;13.194;2022-10-30T00:36:27;12.70;99.90
11772;DHT22;12556;55.748;13.194;2022-10-30T00:38:54;12.70;99.90
11772;DHT22;12556;55.748;13.194;2022-10-30T00:41:22;12.70;99.90
11772;DHT22;12556;55.748;13.194;2022-10-30T00:43:50;12.70;99.90
11772;DHT22;12556;55.748;13.194;2022-10-30T00:46:22;12.70;99.90
11772;DHT22;12556;55.748;13.194;2022-10-30T00:48:53;12.70;99.90
11772;DHT22;12556;55.748;13.194;2022-10-30T00:51:21;12.70;99.90
11772;DHT22;12556;55.748;13.194;2022-10-30T00:53:49;12.70;99.90
11772;DHT22;12556;55.748;13.194;2022-10-30T00:56:18;12.70;99.90
11772;DHT22;12556;55.748;13.194;2022-10-30T00:58:48;12.80;99.90
11772;DHT22;12556;55.748;13.194;2022-10-30T01:01:20;12.80;99.90
11772;DHT22;12556;55.748;13.194;2022-10-30T01:03:50;12.80;99.90
11772;DHT22;12556;55.748;13.194;2022-10-30T01:06:18;12.80;99.90
11772;DHT22;12556;55.748;13.194;2022-10-30T01:08:46;12.80;99.90
11772;DHT22;12556;55.748;13.194;2022-10-30T01:11:13;12.80;99.90
11772;DHT22;12556;55.748;13.194;2022-10-30T01:13:42;12.80;99.90
11772;DHT22;12556;55.748;13.194;2022-10-30T01:16:31;12.80;99.90
11772;DHT22;12556;55.748;13.194;2022-10-30T01:19:11;12.80;99.90
11772;DHT22;12556;55.748;13.194;2022-10-30T01:21:49;12.80;99.90
11772;DHT22;12556;55.748;13.194;2022-10-30T01:24:37;12.80;99.90
11772;DHT22;12556;55.748;13.194;2022-10-30T01:27:17;12.80;99.90
11772;DHT22;12556;55.748;13.194;2022-10-30T01:29:55;12.80;99.90
11772;DHT22;12556;55.748;13.194;2022-10-30T01:32:40;12.60;99.90
11772;DHT22;12556;55.748;13.194;2022-10-30T01:35:13;12.80;99.90
11772;DHT22;12556;55.748;13.194;2022-10-30T01:37:49;12.80;99.90
11772;DHT22;12556;55.748;13.194;2022-10-30T01:40:19;12.80;99.90
11772;DHT22;12556;55.748;13.194;2022-10-30T01:42:49;12.80;99.90
11772;DHT22;12556;55.748;13.194;2022-10-30T01:45:21;12.80;99.90
11772;DHT22;12556;55.748;13.194;2022-10-30T01:48:12;12.80;99.90
11772;DHT22;12556;55.748;13.194;2022-10-30T01:50:48;12.80;99.90
11772;DHT22;12556;55.748;13.194;2022-10-30T01:53:28;12.80;99.90
11772;DHT22;12556;55.748;13.194;2022-10-30T01:56:08;12.80;99.90
11772;DHT22;12556;55.748;13.194;2022-10-30T01:58:43;12.70;99.90
11772;DHT22;12556;55.748;13.194;2022-10-30T02:01:11;12.70;99.90
11772;DHT22;12556;55.748;13.194;2022-10-30T02:03:40;12.70;99.90
11772;DHT22;12556;55.748;13.194;2022-10-30T02:06:07;12.70;99.90
11772;DHT22;12556;55.748;13.194;2022-10-30T02:08:35;12.70;99.90
11772;DHT22;12556;55.748;13.194;2022-10-30T02:11:02;12.70;99.90
11772;DHT22;12556;55.748;13.194;2022-10-30T02:13:30;12.70;99.90
11772;DHT22;12556;55.748;13.194;2022-10-30T02:15:58;12.70;99.90
11772;DHT22;12556;55.748;13.194;2022-10-30T02:18:26;12.80;99.90
11772;DHT22;12556;55.748;13.194;2022-10-30T02:20:55;12.70;99.90
11772;DHT22;12556;55.748;13.194;2022-10-30T02:23:22;12.70;99.90
11772;DHT22;12556;55.748;13.194;2022-10-30T02:25:49;12.60;99.90
11772;DHT22;12556;55.748;13.194;2022-10-30T02:28:16;12.60;99.90
11772;DHT22;12556;55.748;13.194;2022-10-30T02:30:43;12.60;99.90
11772;DHT22;12556;55.748;13.194;2022-10-30T02:33:10;12.60;99.90
11772;DHT22;12556;55.748;13.194;2022-10-30T02:35:37;12.60;99.90
11772;DHT22;12556;55.748;13.194;2022-10-30T02:38:05;12.60;99.90
11772;DHT22;12556;55.748;13.194;2022-10-30T02:40:32;12.60;99.90
11772;DHT22;12556;55.748;13.194;2022-10-30T02:42:59;12.60;99.90
11772;DHT22;12556;55.748;13.194;2022-10-30T02:45:26;12.60;99.90
11772;DHT22;12556;55.748;13.194;2022-10-30T02:47:53;12.60;99.90
11772;DHT22;12556;55.748;13.194;2022-10-30T02:50:20;12.60;99.90
11772;DHT22;12556;55.748;13.194;2022-10-30T02:52:47;12.60;99.90
11772;DHT22;12556;55.748;13.194;2022-10-30T02:55:15;12.60;99.90
11772;DHT22;12556;55.748;13.194;2022-10-30T02:57:42;12.60;99.90
11772;DHT22;12556;55.748;13.194;2022-10-30T03:00:10;12.70;99.90
11772;DHT22;12556;55.748;13.194;2022-10-30T03:02:37;12.70;99.90
11772;DHT22;12556;55.748;13.194;2022-10-30T03:05:05;12.70;99.90
11772;DHT22;12556;55.748;13.194;2022-10-30T03:07:31;12.70;99.90
11772;DHT22;12556;55.748;13.194;2022-10-30T03:09:58;12.70;99.90
11772;DHT22;12556;55.748;13.194;2022-10-30T03:12:27;12.70;99.90
11772;DHT22;12556;55.748;13.194;2022-10-30T03:14:53;12.70;99.90
11772;DHT22;12556;55.748;13.194;2022-10-30T03:17:20;12.70;99.90
11772;DHT22;12556;55.748;13.194;2022-10-30T03:19:47;12.70;99.90
11772;DHT22;12556;55.748;13.194;2022-10-30T03:22:16;12.70;99.90
11772;DHT22;12556;55.748;13.194;2022-10-30T03:24:43;12.70;99.90
11772;DHT22;12556;55.748;13.194;2022-10-30T03:27:09;12.70;99.90
11772;DHT22;12556;55.748;13.194;2022-10-30T03:29:40;12.60;99.90
11772;DHT22;12556;55.748;13.194;2022-10-30T03:32:08;12.60;99.90
11772;DHT22;12556;55.748;13.194;2022-10-30T03:34:36;12.60;99.90
11772;DHT22;12556;55.748;13.194;2022-10-30T03:37:03;12.70;99.90
11772;DHT22;12556;55.748;13.194;2022-10-30T03:39:30;12.70;99.90
11772;DHT22;12556;55.748;13.194;2022-10-30T03:41:57;12.70;99.90
11772;DHT22;12556;55.748;13.194;2022-10-30T03:44:24;12.60;99.90
11772;DHT22;12556;55.748;13.194;2022-10-30T03:46:52;12.60;99.90
11772;DHT22;12556;55.748;13.194;2022-10-30T03:49:19;12.60;99.90
11772;DHT22;12556;55.748;13.194;2022-10-30T03:51:46;12.60;99.90
11772;DHT22;12556;55.748;13.194;2022-10-30T03:54:13;12.60;99.90
11772;DHT22;12556;55.748;13.194;2022-10-30T03:56:40;12.60;99.90
11772;DHT22;12556;55.748;13.194;2022-10-30T03:59:07;12.60;99.90
11772;DHT22;12556;55.748;13.194;2022-10-30T04:01:34;12.70;99.90
11772;DHT22;12556;55.748;13.194;2022-10-30T04:04:02;12.70;99.90
11772;DHT22;12556;55.748;13.194;2022-10-30T04:06:29;12.70;99.90
11772;DHT22;12556;55.748;13.194;2022-10-30T04:08:56;12.70;99.90
11772;DHT22;12556;55.748;13.194;2022-10-30T04:11:23;12.70;99.90
11772;DHT22;12556;55.748;13.194;2022-10-30T04:13:50;12.70;99.90
11772;DHT22;12556;55.748;13.194;2022-10-30T04:16:17;12.70;99.90
11772;DHT22;12556;55.748;13.194;2022-10-30T04:18:43;12.60;99.90
11772;DHT22;12556;55.748;13.194;2022-10-30T04:21:12;12.60;99.90
11772;DHT22;12556;55.748;13.194;2022-10-30T04:23:39;12.60;99.90
11772;DHT22;12556;55.748;13.194;2022-10-30T04:26:06;12.60;99.90
11772;DHT22;12556;55.748;13.194;2022-10-30T04:28:32;12.60;99.90
11772;DHT22;12556;55.748;13.194;2022-10-30T04:30:59;12.60;99.90
11772;DHT22;12556;55.748;13.194;2022-10-30T04:33:26;12.60;99.90
11772;DHT22;12556;55.748;13.194;2022-10-30T04:35:53;12.60;99.90
11772;DHT22;12556;55.748;13.194;2022-10-30T04:38:22;12.60;99.90
11772;DHT22;12556;55.748;13.194;2022-10-30T04:40:49;12.60;99.90
11772;DHT22;12556;55.748;13.194;2022-10-30T04:43:15;12.60;99.90
11772;DHT22;12556;55.748;13.194;2022-10-30T04:45:42;12.60;99.90
11772;DHT22;12556;55.748;13.194;2022-10-30T04:48:11;12.60;99.90
11772;DHT22;12556;55.748;13.194;2022-10-30T04:50:39;12.60;99.90
11772;DHT22;12556;55.748;13.194;2022-10-30T04:53:08;12.60;99.90
11772;DHT22;12556;55.748;13.194;2022-10-30T04:55:37;12.60;99.90
11772;DHT22;12556;55.748;13.194;2022-10-30T04:58:04;12.60;99.90
11772;DHT22;12556;55.748;13.194;2022-10-30T05:00:32;12.50;99.90
11772;DHT22;12556;55.748;13.194;2022-10-30T05:02:59;12.60;99.90
11772;DHT22;12556;55.748;13.194;2022-10-30T05:05:26;12.50;99.90
11772;DHT22;12556;55.748;13.194;2022-10-30T05:07:53;12.50;99.90
11772;DHT22;12556;55.748;13.194;2022-10-30T05:10:20;12.50;99.90
11772;DHT22;12556;55.748;13.194;2022-10-30T05:12:50;12.50;99.90
11772;DHT22;12556;55.748;13.194;2022-10-30T05:15:18;12.50;99.90
11772;DHT22;12556;55.748;13.194;2022-10-30T05:17:45;12.50;99.90
11772;DHT22;12556;55.748;13.194;2022-10-30T05:20:12;12.50;99.90
11772;DHT22;12556;55.748;13.194;2022-10-30T05:22:39;12.50;99.90
11772;DHT22;12556;55.748;13.194;2022-10-30T05:25:06;12.50;99.90
11772;DHT22;12556;55.748;13.194;2022-10-30T05:27:33;12.40;99.90
11772;DHT22;12556;55.748;13.194;2022-10-30T05:30:01;12.50;99.90
11772;DHT22;12556;55.748;13.194;2022-10-30T05:32:28;12.40;99.90
11772;DHT22;12556;55.748;13.194;2022-10-30T05:34:55;12.40;99.90
11772;DHT22;12556;55.748;13.194;2022-10-30T05:37:23;12.40;99.90
11772;DHT22;12556;55.748;13.194;2022-10-30T05:39:50;12.40;99.90
11772;DHT22;12556;55.748;13.194;2022-10-30T05:42:16;12.30;99.90
11772;DHT22;12556;55.748;13.194;2022-10-30T05:44:43;12.30;99.90
11772;DHT22;12556;55.748;13.194;2022-10-30T05:47:12;12.30;99.90
11772;DHT22;12556;55.748;13.194;2022-10-30T05:49:39;12.20;99.90
11772;DHT22;12556;55.748;13.194;2022-10-30T05:52:06;12.30;99.90
11772;DHT22;12556;55.748;13.194;2022-10-30T05:54:33;12.20;99.90
11772;DHT22;12556;55.748;13.194;2022-10-30T05:57:00;12.20;99.90
11772;DHT22;12556;55.748;13.194;2022-10-30T05:59:27;12.20;99.90
11772;DHT22;12556;55.748;13.194;2022-10-30T06:01:54;12.20;99.90
11772;DHT22;12556;55.748;13.194;2022-10-30T06:04:24;12.20;99.90
11772;DHT22;12556;55.748;13.194;2022-10-30T06:06:51;12.10;99.90
11772;DHT22;12556;55.748;13.194;2022-10-30T06:09:18;12.20;99.90
11772;DHT22;12556;55.748;13.194;2022-10-30T06:11:44;12.10;99.90
11772;DHT22;12556;55.748;13.194;2022-10-30T06:14:11;12.10;99.90
11772;DHT22;12556;55.748;13.194;2022-10-30T06:16:39;12.00;99.90
11772;DHT22;12556;55.748;13.194;2022-10-30T06:19:05;12.10;99.90
11772;DHT22;12556;55.748;13.194;2022-10-30T06:21:34;12.00;99.90
11772;DHT22;12556;55.748;13.194;2022-10-30T06:24:01;12.00;99.90
11772;DHT22;12556;55.748;13.194;2022-10-30T06:26:28;12.00;99.90
11772;DHT22;12556;55.748;13.194;2022-10-30T06:28:55;12.00;99.90
11772;DHT22;12556;55.748;13.194;2022-10-30T06:31:22;12.00;99.90
11772;DHT22;12556;55.748;13.194;2022-10-30T06:33:49;12.00;99.90
11772;DHT22;12556;55.748;13.194;2022-10-30T06:36:16;11.90;99.90
11772;DHT22;12556;55.748;13.194;2022-10-30T06:38:44;11.90;99.90
11772;DHT22;12556;55.748;13.194;2022-10-30T06:41:11;11.90;99.90
11772;DHT22;12556;55.748;13.194;2022-10-30T06:43:38;11.90;99.90
11772;DHT22;12556;55.748;13.194;2022-10-30T06:46:05;11.90;99.90
11772;DHT22;12556;55.748;13.194;2022-10-30T06:48:32;11.90;99.90
11772;DHT22;12556;55.748;13.194;2022-10-30T06:50:59;11.90;99.90
11772;DHT22;12556;55.748;13.194;2022-10-30T06:53:27;12.00;99.90
11772;DHT22;12556;55.748;13.194;2022-10-30T06:55:57;12.00;99.90
11772;DHT22;12556;55.748;13.194;2022-10-30T06:58:24;12.00;99.90
11772;DHT22;12556;55.748;13.194;2022-10-30T07:00:51;12.00;99.90
11772;DHT22;12556;55.748;13.194;2022-10-30T07:03:18;12.60;99.90
11772;DHT22;12556;55.748;13.194;2022-10-30T07:05:46;12.00;99.90
11772;DHT22;12556;55.748;13.194;2022-10-30T07:08:13;12.00;99.90
11772;DHT22;12556;55.748;13.194;2022-10-30T07:10:40;12.10;99.90
11772;DHT22;12556;55.748;13.194;2022-10-30T07:13:08;12.10;99.90
11772;DHT22;12556;55.748;13.194;2022-10-30T07:15:35;12.10;99.90
11772;DHT22;12556;55.748;13.194;2022-10-30T07:18:03;12.10;99.90
11772;DHT22;12556;55.748;13.194;2022-10-30T07:20:32;12.10;99.90
11772;DHT22;12556;55.748;13.194;2022-10-30T07:23:00;12.10;99.90
11772;DHT22;12556;55.748;13.194;2022-10-30T07:25:27;12.20;99.90
11772;DHT22;12556;55.748;13.194;2022-10-30T07:27:55;12.20;99.90
11772;DHT22;12556;55.748;13.194;2022-10-30T07:30:25;12.20;99.90
11772;DHT22;12556;55.748;13.194;2022-10-30T07:32:56;12.20;99.90
11772;DHT22;12556;55.748;13.194;2022-10-30T07:35:23;12.20;99.90
11772;DHT22;12556;55.748;13.194;2022-10-30T07:37:50;12.20;99.90
11772;DHT22;12556;55.748;13.194;2022-10-30T07:40:19;12.20;99.90
11772;DHT22;12556;55.748;13.194;2022-10-30T07:42:47;12.30;99.90
11772;DHT22;12556;55.748;13.194;2022-10-30T07:45:14;12.30;99.90
11772;DHT22;12556;55.748;13.194;2022-10-30T07:47:42;12.30;99.90
11772;DHT22;12556;55.748;13.194;2022-10-30T07:50:10;12.30;99.90
11772;DHT22;12556;55.748;13.194;2022-10-30T07:52:37;12.40;99.90
11772;DHT22;12556;55.748;13.194;2022-10-30T07:55:05;12.40;99.90
11772;DHT22;12556;55.748;13.194;2022-10-30T07:57:34;12.40;99.90
11772;DHT22;12556;55.748;13.194;2022-10-30T08:00:03;12.50;99.90
11772;DHT22;12556;55.748;13.194;2022-10-30T08:02:30;12.50;99.90
11772;DHT22;12556;55.748;13.194;2022-10-30T08:04:58;12.60;99.90
11772;DHT22;12556;55.748;13.194;2022-10-30T08:07:28;12.60;99.90
11772;DHT22;12556;55.748;13.194;2022-10-30T08:09:55;12.70;99.90
11772;DHT22;12556;55.748;13.194;2022-10-30T08:12:22;12.70;99.90
11772;DHT22;12556;55.748;13.194;2022-10-30T08:14:50;12.80;99.90
11772;DHT22;12556;55.748;13.194;2022-10-30T08:17:17;12.90;99.90
11772;DHT22;12556;55.748;13.194;2022-10-30T08:19:44;12.80;99.90
11772;DHT22;12556;55.748;13.194;2022-10-30T08:22:13;13.10;99.90
11772;DHT22;12556;55.748;13.194;2022-10-30T08:24:39;13.10;99.90
11772;DHT22;12556;55.748;13.194;2022-10-30T08:27:06;13.20;99.90
11772;DHT22;12556;55.748;13.194;2022-10-30T08:29:33;13.30;99.90
11772;DHT22;12556;55.748;13.194;2022-10-30T08:32:00;13.40;99.90
11772;DHT22;12556;55.748;13.194;2022-10-30T08:34:27;13.40;99.90
11772;DHT22;12556;55.748;13.194;2022-10-30T08:36:56;13.40;99.90
11772;DHT22;12556;55.748;13.194;2022-10-30T08:39:26;13.50;99.90
11772;DHT22;12556;55.748;13.194;2022-10-30T08:41:52;13.50;99.90
11772;DHT22;12556;55.748;13.194;2022-10-30T08:44:19;13.60;99.90
11772;DHT22;12556;55.748;13.194;2022-10-30T08:46:46;13.70;99.90
11772;DHT22;12556;55.748;13.194;2022-10-30T08:49:13;13.70;99.90
11772;DHT22;12556;55.748;13.194;2022-10-30T08:51:40;13.80;99.90
11772;DHT22;12556;55.748;13.194;2022-10-30T08:54:08;13.80;99.90
11772;DHT22;12556;55.748;13.194;2022-10-30T08:56:37;13.80;99.90
11772;DHT22;12556;55.748;13.194;2022-10-30T08:59:04;13.90;99.90
11772;DHT22;12556;55.748;13.194;2022-10-30T09:01:31;13.90;99.90
11772;DHT22;12556;55.748;13.194;2022-10-30T09:03:57;13.90;99.90
11772;DHT22;12556;55.748;13.194;2022-10-30T09:06:24;13.90;99.90
11772;DHT22;12556;55.748;13.194;2022-10-30T09:08:51;13.90;99.90
11772;DHT22;12556;55.748;13.194;2022-10-30T09:11:18;13.90;99.90
11772;DHT22;12556;55.748;13.194;2022-10-30T09:13:46;13.90;99.90
11772;DHT22;12556;55.748;13.194;2022-10-30T09:16:13;14.00;99.90
11772;DHT22;12556;55.748;13.194;2022-10-30T09:18:40;13.90;99.90
11772;DHT22;12556;55.748;13.194;2022-10-30T09:21:08;13.90;99.90
11772;DHT22;12556;55.748;13.194;2022-10-30T09:23:34;13.90;99.90
11772;DHT22;12556;55.748;13.194;2022-10-30T09:26:01;13.90;99.90
11772;DHT22;12556;55.748;13.194;2022-10-30T09:28:28;13.90;99.90
11772;DHT22;12556;55.748;13.194;2022-10-30T09:30:56;13.90;99.90
11772;DHT22;12556;55.748;13.194;2022-10-30T09:33:23;14.00;99.90
11772;DHT22;12556;55.748;13.194;2022-10-30T09:35:50;14.00;99.90
11772;DHT22;12556;55.748;13.194;2022-10-30T09:38:17;14.10;99.90
11772;DHT22;12556;55.748;13.194;2022-10-30T09:43:47;14.20;99.90
11772;DHT22;12556;55.748;13.194;2022-10-30T09:46:27;14.40;99.90
11772;DHT22;12556;55.748;13.194;2022-10-30T09:49:07;14.60;99.90
11772;DHT22;12556;55.748;13.194;2022-10-30T09:51:47;14.80;99.90
11772;DHT22;12556;55.748;13.194;2022-10-30T09:54:23;14.90;99.90
11772;DHT22;12556;55.748;13.194;2022-10-30T09:56:57;15.10;99.90
11772;DHT22;12556;55.748;13.194;2022-10-30T09:59:37;15.20;99.90
11772;DHT22;12556;55.748;13.194;2022-10-30T10:02:18;15.40;99.90
11772;DHT22;12556;55.748;13.194;2022-10-30T10:04:50;15.50;99.90
11772;DHT22;12556;55.748;13.194;2022-10-30T10:07:21;15.60;99.90
11772;DHT22;12556;55.748;13.194;2022-10-30T10:09:51;15.70;99.90
11772;DHT22;12556;55.748;13.194;2022-10-30T10:12:27;15.90;99.90
11772;DHT22;12556;55.748;13.194;2022-10-30T10:14:57;16.10;99.90
11772;DHT22;12556;55.748;13.194;2022-10-30T10:17:32;16.10;99.90
11772;DHT22;12556;55.748;13.194;2022-10-30T10:20:01;16.20;99.90
11772;DHT22;12556;55.748;13.194;2022-10-30T10:22:32;16.30;99.90
11772;DHT22;12556;55.748;13.194;2022-10-30T10:25:02;16.40;99.90
11772;DHT22;12556;55.748;13.194;2022-10-30T10:27:51;16.50;99.90
11772;DHT22;12556;55.748;13.194;2022-10-30T10:30:21;16.60;99.90
11772;DHT22;12556;55.748;13.194;2022-10-30T10:36:04;16.70;99.90
11772;DHT22;12556;55.748;13.194;2022-10-30T10:38:53;16.80;99.90
11772;DHT22;12556;55.748;13.194;2022-10-30T10:41:34;17.00;99.90
11772;DHT22;12556;55.748;13.194;2022-10-30T10:44:15;17.10;99.90
11772;DHT22;12556;55.748;13.194;2022-10-30T10:47:13;17.40;99.90
11772;DHT22;12556;55.748;13.194;2022-10-30T10:49:56;17.60;99.90
11772;DHT22;12556;55.748;13.194;2022-10-30T10:52:34;17.70;99.90
11772;DHT22;12556;55.748;13.194;2022-10-30T10:55:04;17.80;99.90
11772;DHT22;12556;55.748;13.194;2022-10-30T10:57:34;17.90;99.90
11772;DHT22;12556;55.748;13.194;2022-10-30T11:00:05;18.10;99.90
11772;DHT22;12556;55.748;13.194;2022-10-30T11:02:37;18.20;99.90
11772;DHT22;12556;55.748;13.194;2022-10-30T11:05:15;18.40;99.90
11772;DHT22;12556;55.748;13.194;2022-10-30T11:07:45;18.50;99.90
11772;DHT22;12556;55.748;13.194;2022-10-30T11:10:15;18.60;99.90
11772;DHT22;12556;55.748;13.194;2022-10-30T11:12:43;18.80;99.90
11772;DHT22;12556;55.748;13.194;2022-10-30T11:15:36;19.00;99.90
11772;DHT22;12556;55.748;13.194;2022-10-30T11:18:07;19.00;99.90
11772;DHT22;12556;55.748;13.194;2022-10-30T11:20:40;19.10;99.90
11772;DHT22;12556;55.748;13.194;2022-10-30T11:23:30;19.20;99.90
11772;DHT22;12556;55.748;13.194;2022-10-30T11:25:57;19.30;99.90
11772;DHT22;12556;55.748;13.194;2022-10-30T11:28:35;19.40;99.90
11772;DHT22;12556;55.748;13.194;2022-10-30T11:31:17;19.50;99.90
11772;DHT22;12556;55.748;13.194;2022-10-30T11:33:45;19.60;99.90
11772;DHT22;12556;55.748;13.194;2022-10-30T11:36:15;19.80;99.90
11772;DHT22;12556;55.748;13.194;2022-10-30T11:38:42;19.80;99.90
11772;DHT22;12556;55.748;13.194;2022-10-30T11:41:10;19.80;99.90
11772;DHT22;12556;55.748;13.194;2022-10-30T11:43:39;19.80;99.90
11772;DHT22;12556;55.748;13.194;2022-10-30T11:46:09;19.90;99.90
11772;DHT22;12556;55.748;13.194;2022-10-30T11:48:39;20.00;99.90
11772;DHT22;12556;55.748;13.194;2022-10-30T11:51:09;20.20;99.90
11772;DHT22;12556;55.748;13.194;2022-10-30T11:53:41;20.30;99.90
11772;DHT22;12556;55.748;13.194;2022-10-30T11:56:14;20.50;99.90
11772;DHT22;12556;55.748;13.194;2022-10-30T11:58:44;20.50;99.90
11772;DHT22;12556;55.748;13.194;2022-10-30T12:01:21;20.40;99.90
11772;DHT22;12556;55.748;13.194;2022-10-30T12:03:49;20.40;99.90
11772;DHT22;12556;55.748;13.194;2022-10-30T12:06:17;20.30;99.90
11772;DHT22;12556;55.748;13.194;2022-10-30T12:09:00;20.20;99.90
11772;DHT22;12556;55.748;13.194;2022-10-30T12:11:29;20.20;99.90
11772;DHT22;12556;55.748;13.194;2022-10-30T12:13:57;20.20;99.90
11772;DHT22;12556;55.748;13.194;2022-10-30T12:16:25;20.20;99.90
11772;DHT22;12556;55.748;13.194;2022-10-30T12:18:55;20.20;99.90
11772;DHT22;12556;55.748;13.194;2022-10-30T12:21:24;20.30;99.90
11772;DHT22;12556;55.748;13.194;2022-10-30T12:23:54;20.30;99.90
11772;DHT22;12556;55.748;13.194;2022-10-30T12:26:24;20.30;99.90
11772;DHT22;12556;55.748;13.194;2022-10-30T12:28:56;20.20;99.90
11772;DHT22;12556;55.748;13.194;2022-10-30T12:31:29;20.00;99.90
11772;DHT22;12556;55.748;13.194;2022-10-30T12:34:11;19.90;99.90
11772;DHT22;12556;55.748;13.194;2022-10-30T12:36:46;19.80;99.90
11772;DHT22;12556;55.748;13.194;2022-10-30T12:39:20;19.70;99.90
11772;DHT22;12556;55.748;13.194;2022-10-30T12:41:56;19.60;99.90
11772;DHT22;12556;55.748;13.194;2022-10-30T12:44:27;19.50;99.90
11772;DHT22;12556;55.748;13.194;2022-10-30T12:47:01;19.50;99.90
11772;DHT22;12556;55.748;13.194;2022-10-30T12:49:38;19.40;99.90
11772;DHT22;12556;55.748;13.194;2022-10-30T12:52:10;19.30;99.90
11772;DHT22;12556;55.748;13.194;2022-10-30T12:54:44;19.10;99.90
11772;DHT22;12556;55.748;13.194;2022-10-30T12:57:15;19.00;99.90
11772;DHT22;12556;55.748;13.194;2022-10-30T12:59:54;18.90;99.90
11772;DHT22;12556;55.748;13.194;2022-10-30T13:02:34;18.90;99.90
11772;DHT22;12556;55.748;13.194;2022-10-30T13:05:05;18.80;99.90
11772;DHT22;12556;55.748;13.194;2022-10-30T13:07:43;18.80;99.90
11772;DHT22;12556;55.748;13.194;2022-10-30T13:10:26;18.70;99.90
11772;DHT22;12556;55.748;13.194;2022-10-30T13:13:00;18.70;99.90
11772;DHT22;12556;55.748;13.194;2022-10-30T13:15:32;18.60;99.90
11772;DHT22;12556;55.748;13.194;2022-10-30T13:18:14;18.50;99.90
11772;DHT22;12556;55.748;13.194;2022-10-30T13:20:45;18.50;99.90
11772;DHT22;12556;55.748;13.194;2022-10-30T13:23:19;18.50;99.90
11772;DHT22;12556;55.748;13.194;2022-10-30T13:25:56;18.40;99.90
11772;DHT22;12556;55.748;13.194;2022-10-30T13:28:32;18.30;99.90
11772;DHT22;12556;55.748;13.194;2022-10-30T13:31:10;18.30;99.90
11772;DHT22;12556;55.748;13.194;2022-10-30T13:33:43;18.20;99.90
11772;DHT22;12556;55.748;13.194;2022-10-30T13:36:17;18.20;99.90
11772;DHT22;12556;55.748;13.194;2022-10-30T13:38:50;18.10;99.90
11772;DHT22;12556;55.748;13.194;2022-10-30T13:41:26;18.10;99.90
11772;DHT22;12556;55.748;13.194;2022-10-30T13:44:03;18.00;99.90
11772;DHT22;12556;55.748;13.194;2022-10-30T13:46:53;18.00;99.90
11772;DHT22;12556;55.748;13.194;2022-10-30T13:49:37;18.00;99.90
11772;DHT22;12556;55.748;13.194;2022-10-30T13:52:11;17.90;99.90
11772;DHT22;12556;55.748;13.194;2022-10-30T13:54:43;17.80;99.90
11772;DHT22;12556;55.748;13.194;2022-10-30T13:57:16;17.80;99.90
11772;DHT22;12556;55.748;13.194;2022-10-30T13:59:55;17.70;99.90
11772;DHT22;12556;55.748;13.194;2022-10-30T14:02:34;17.70;99.90
11772;DHT22;12556;55.748;13.194;2022-10-30T14:05:19;17.70;99.90
11772;DHT22;12556;55.748;13.194;2022-10-30T14:07:54;17.60;99.90
11772;DHT22;12556;55.748;13.194;2022-10-30T14:10:38;17.50;99.90
11772;DHT22;12556;55.748;13.194;2022-10-30T14:13:13;17.40;99.90
11772;DHT22;12556;55.748;13.194;2022-10-30T14:15:44;17.30;99.90
11772;DHT22;12556;55.748;13.194;2022-10-30T14:18:43;17.30;99.90
11772;DHT22;12556;55.748;13.194;2022-10-30T14:24:14;17.20;99.90
11772;DHT22;12556;55.748;13.194;2022-10-30T14:26:50;17.10;99.90
11772;DHT22;12556;55.748;13.194;2022-10-30T14:29:45;17.00;99.90
11772;DHT22;12556;55.748;13.194;2022-10-30T14:32:48;17.00;99.90
11772;DHT22;12556;55.748;13.194;2022-10-30T14:35:37;16.90;99.90
11772;DHT22;12556;55.748;13.194;2022-10-30T14:38:25;16.80;99.90
11772;DHT22;12556;55.748;13.194;2022-10-30T14:44:28;16.70;99.90
11772;DHT22;12556;55.748;13.194;2022-10-30T14:47:13;16.60;99.90
11772;DHT22;12556;55.748;13.194;2022-10-30T14:49:54;16.60;99.90
11772;DHT22;12556;55.748;13.194;2022-10-30T14:52:32;16.50;99.90
11772;DHT22;12556;55.748;13.194;2022-10-30T14:55:18;16.50;99.90
11772;DHT22;12556;55.748;13.194;2022-10-30T14:57:51;16.50;99.90
11772;DHT22;12556;55.748;13.194;2022-10-30T15:00:39;16.40;99.90
11772;DHT22;12556;55.748;13.194;2022-10-30T15:03:09;16.30;99.90
11772;DHT22;12556;55.748;13.194;2022-10-30T15:05:51;16.30;99.90
11772;DHT22;12556;55.748;13.194;2022-10-30T15:12:00;16.10;99.90
11772;DHT22;12556;55.748;13.194;2022-10-30T15:14:31;16.10;99.90
11772;DHT22;12556;55.748;13.194;2022-10-30T15:16:58;16.00;99.90
11772;DHT22;12556;55.748;13.194;2022-10-30T15:19:27;16.00;99.90
11772;DHT22;12556;55.748;13.194;2022-10-30T15:21:56;16.00;99.90
11772;DHT22;12556;55.748;13.194;2022-10-30T15:24:25;15.90;99.90
11772;DHT22;12556;55.748;13.194;2022-10-30T15:26:54;15.90;99.90
11772;DHT22;12556;55.748;13.194;2022-10-30T15:29:25;15.80;99.90
11772;DHT22;12556;55.748;13.194;2022-10-30T15:31:58;15.80;99.90
11772;DHT22;12556;55.748;13.194;2022-10-30T15:34:26;15.80;99.90
11772;DHT22;12556;55.748;13.194;2022-10-30T15:36:53;15.80;99.90
11772;DHT22;12556;55.748;13.194;2022-10-30T15:39:22;15.80;99.90
11772;DHT22;12556;55.748;13.194;2022-10-30T15:41:51;15.80;99.90
11772;DHT22;12556;55.748;13.194;2022-10-30T15:44:22;15.80;99.90
11772;DHT22;12556;55.748;13.194;2022-10-30T15:46:51;15.80;99.90
11772;DHT22;12556;55.748;13.194;2022-10-30T15:49:25;15.70;99.90
11772;DHT22;12556;55.748;13.194;2022-10-30T15:51:54;15.70;99.90
11772;DHT22;12556;55.748;13.194;2022-10-30T15:54:23;15.70;99.90